T7GPM LSZA-LIRZ
Flight info
| Callsign | T7GPM |
|---|---|
| Flight time | N/A |
| Altitude | 1900 |
| Route | SRN1W SRN L153 OSBUL L995 AMTEL Q85 LAKOX LAKOX1D |
| Aircraft | P180/L-SDE3FGHIRWY/C |
Departure
| Time | 2026-04-24 07:14 |
|---|---|
| Airport | Lugano Airport (LSZA) |
Arrival
| Time | N/A |
|---|---|
| Airport | Perugia San Francesco d'Assisi – Umbria International Airport (LIRZ) |
| Time | Latitude | Longitude | Altitude | Speed | Heading |
|---|---|---|---|---|---|
| 2026-04-24 07:07 | 46.00188 | 8.90779 | 897 ft | 0 kts | 19° |
| 2026-04-24 07:10 | 46.00213 | 8.90793 | 897 ft | 11 kts | 34° |
| 2026-04-24 07:10 | 46.00274 | 8.90872 | 897 ft | 13 kts | 22° |
| 2026-04-24 07:11 | 46.00363 | 8.90915 | 897 ft | 14 kts | 20° |
| 2026-04-24 07:11 | 46.00446 | 8.90957 | 897 ft | 9 kts | 27° |
| 2026-04-24 07:11 | 46.00456 | 8.90975 | 897 ft | 0 kts | 72° |
| 2026-04-24 07:11 | 46.00457 | 8.90982 | 897 ft | 3 kts | 90° |
| 2026-04-24 07:12 | 46.00446 | 8.91052 | 900 ft | 12 kts | 83° |
| 2026-04-24 07:12 | 46.00514 | 8.91103 | 901 ft | 12 kts | 19° |
| 2026-04-24 07:12 | 46.00603 | 8.91146 | 899 ft | 16 kts | 18° |
| 2026-04-24 07:12 | 46.00719 | 8.91202 | 895 ft | 19 kts | 18° |
| 2026-04-24 07:13 | 46.00820 | 8.91236 | 895 ft | 10 kts | 16° |
| 2026-04-24 07:13 | 46.00815 | 8.91258 | 895 ft | 6 kts | 227° |
| 2026-04-24 07:13 | 46.00796 | 8.91240 | 895 ft | 0 kts | 199° |
| 2026-04-24 07:14 | 46.00578 | 8.91134 | 900 ft | 88 kts | 198° |
| 2026-04-24 07:14 | 45.99723 | 8.90729 | 1158 ft | 150 kts | 197° |
| 2026-04-24 07:14 | 45.98697 | 8.90252 | 2155 ft | 161 kts | 199° |
| 2026-04-24 07:14 | 45.97573 | 8.89617 | 3040 ft | 192 kts | 201° |
| 2026-04-24 07:15 | 45.96365 | 8.88956 | 4239 ft | 179 kts | 199° |
| 2026-04-24 07:15 | 45.95205 | 8.88415 | 4917 ft | 176 kts | 197° |
| 2026-04-24 07:15 | 45.94062 | 8.87937 | 5722 ft | 166 kts | 197° |
| 2026-04-24 07:15 | 45.92944 | 8.87494 | 6315 ft | 171 kts | 197° |
| 2026-04-24 07:16 | 45.91761 | 8.87027 | 6755 ft | 179 kts | 197° |
| 2026-04-24 07:16 | 45.90577 | 8.86548 | 7375 ft | 174 kts | 197° |
| 2026-04-24 07:16 | 45.89400 | 8.86066 | 7869 ft | 180 kts | 197° |
| 2026-04-24 07:16 | 45.88174 | 8.85545 | 8286 ft | 186 kts | 198° |
| 2026-04-24 07:17 | 45.86939 | 8.85012 | 8849 ft | 184 kts | 198° |
| 2026-04-24 07:17 | 45.85782 | 8.84514 | 9340 ft | 186 kts | 198° |
| 2026-04-24 07:17 | 45.84925 | 8.84134 | 9626 ft | 191 kts | 198° |
| 2026-04-24 07:17 | 45.83656 | 8.83569 | 10106 ft | 193 kts | 198° |
| 2026-04-24 07:18 | 45.82379 | 8.82999 | 10607 ft | 191 kts | 198° |
| 2026-04-24 07:18 | 45.81096 | 8.82419 | 11028 ft | 195 kts | 198° |
| 2026-04-24 07:18 | 45.79807 | 8.81764 | 11464 ft | 196 kts | 203° |
| 2026-04-24 07:18 | 45.78556 | 8.81026 | 11963 ft | 193 kts | 204° |
| 2026-04-24 07:19 | 45.77299 | 8.80278 | 12332 ft | 200 kts | 203° |
| 2026-04-24 07:19 | 45.75960 | 8.79496 | 12378 ft | 220 kts | 202° |
| 2026-04-24 07:19 | 45.74609 | 8.78740 | 12350 ft | 238 kts | 202° |
| 2026-04-24 07:19 | 45.73170 | 8.77946 | 11927 ft | 265 kts | 201° |